Time;durP1;ratioP1;P1;durP2;ratioP2;P2;SDS_P1;SDS_P2;PMS_P1;PMS_P2;Temp;Humidity;BMP_temperature;BMP_pressure;BME280_temperature;BME280_humidity;BME280_pressure;Samples;Min_cycle;Max_cycle;Signal;HPM_P1;HPM_P2
2022/10/20 00:00:48;;;;;;;7.03;2.10;;;;;;;;;;5032256;28;20061;-72
2022/10/20 00:03:14;;;;;;;4.57;2.00;;;;;;;;;;5031931;28;20048;-72
2022/10/20 00:05:40;;;;;;;8.52;2.38;;;;;;;;;;5032044;28;20037;-71
2022/10/20 00:08:06;;;;;;;5.32;2.00;;;;;;;;;;5032207;28;20026;-72
2022/10/20 00:10:32;;;;;;;6.43;1.88;;;;;;;;;;5032183;28;20030;-72
2022/10/20 00:12:59;;;;;;;8.38;1.98;;;;;;;;;;5014451;28;20025;-72
2022/10/20 00:15:25;;;;;;;4.50;1.90;;;;;;;;;;5031937;28;20084;-71
2022/10/20 00:17:50;;;;;;;7.10;2.40;;;;;;;;;;5031973;28;20051;-71
2022/10/20 00:20:16;;;;;;;3.72;1.88;;;;;;;;;;5032571;28;20021;-73
2022/10/20 00:22:42;;;;;;;7.78;2.05;;;;;;;;;;5041671;28;20030;-73
2022/10/20 00:25:08;;;;;;;6.10;2.40;;;;;;;;;;5046347;28;20029;-72
2022/10/20 00:27:34;;;;;;;4.47;1.90;;;;;;;;;;5041237;28;20029;-72
2022/10/20 00:30:00;;;;;;;3.20;1.85;;;;;;;;;;5037862;28;20026;-72
2022/10/20 00:32:28;;;;;;;9.02;2.42;;;;;;;;;;5037292;28;20021;-73
2022/10/20 00:34:54;;;;;;;5.63;2.10;;;;;;;;;;5037234;28;20021;-72
2022/10/20 00:37:20;;;;;;;4.00;2.05;;;;;;;;;;5014574;28;20464;-72
2022/10/20 00:39:46;;;;;;;3.17;1.90;;;;;;;;;;5032087;28;20096;-72
2022/10/20 00:42:16;;;;;;;4.88;1.88;;;;;;;;;;5031781;28;20025;-73
2022/10/20 00:44:47;;;;;;;4.32;1.80;;;;;;;;;;5031927;28;20026;-73
2022/10/20 00:47:17;;;;;;;2.80;1.65;;;;;;;;;;5031431;28;20030;-72
2022/10/20 00:49:43;;;;;;;8.13;2.38;;;;;;;;;;5031745;28;20034;-71
2022/10/20 00:52:09;;;;;;;3.63;2.17;;;;;;;;;;5032643;28;20104;-71
2022/10/20 00:54:35;;;;;;;7.75;2.10;;;;;;;;;;5036162;28;20028;-71
2022/10/20 00:57:02;;;;;;;5.63;2.00;;;;;;;;;;5035551;28;20064;-72
2022/10/20 00:59:33;;;;;;;2.78;1.85;;;;;;;;;;5035615;28;20030;-71
2022/10/20 01:02:00;;;;;;;11.00;2.08;;;;;;;;;;5017983;28;20128;-73
2022/10/20 01:04:28;;;;;;;3.45;1.90;;;;;;;;;;5036689;28;20073;-72
2022/10/20 01:06:54;;;;;;;4.90;1.90;;;;;;;;;;5035287;28;20060;-72
2022/10/20 01:09:20;;;;;;;7.25;2.25;;;;;;;;;;5035419;28;20049;-71
2022/10/20 01:12:05;;;;;;;6.30;1.70;;;;;;;;;;5035400;28;20493;-72
2022/10/20 01:14:40;;;;;;;6.35;2.35;;;;;;;;;;5053655;28;20044;-71
2022/10/20 01:17:12;;;;;;;4.85;1.88;;;;;;;;;;5051638;28;20018;-71
2022/10/20 01:19:57;;;;;;;4.38;2.15;;;;;;;;;;5048577;28;20025;-75
2022/10/20 01:22:23;;;;;;;;;;;;;;;;;;5049122;28;20021;-71
2022/10/20 01:24:48;;;;;;;;;;;;;;;;;;5047532;28;19988;-72
2022/10/20 01:27:14;;;;;;;;;;;;;;;;;;5047850;28;19932;-72
2022/10/20 01:29:40;;;;;;;;;;;;;;;;;;5048311;28;19909;-72
2022/10/20 01:32:06;;;;;;;;;;;;;;;;;;5043514;28;19905;-72
2022/10/20 01:34:32;;;;;;;;;;;;;;;;;;5039142;28;19912;-73
2022/10/20 01:36:58;;;;;;;;;;;;;;;;;;5036116;28;19955;-72
2022/10/20 01:39:23;;;;;;;;;;;;;;;;;;5035578;28;19905;-72
2022/10/20 01:41:49;;;;;;;;;;;;;;;;;;5035882;28;20302;-72
2022/10/20 01:44:15;;;;;;;;;;;;;;;;;;5035738;28;19905;-72
2022/10/20 01:46:50;;;;;;;;;;;;;;;;;;5035020;28;19909;-72
2022/10/20 01:49:16;;;;;;;;;;;;;;;;;;5035032;28;20357;-72
2022/10/20 01:51:42;;;;;;;;;;;;;;;;;;5035381;28;19905;-72
2022/10/20 01:54:08;;;;;;;;;;;;;;;;;;5035007;28;20350;-72
2022/10/20 01:56:34;;;;;;;;;;;;;;;;;;5034765;28;19931;-71
2022/10/20 01:58:59;;;;;;;;;;;;;;;;;;5034898;28;19948;-73
2022/10/20 02:01:25;;;;;;;;;;;;;;;;;;5036089;28;19905;-73
2022/10/20 02:03:52;;;;;;;;;;;;;;;;;;5035878;28;20278;-73
2022/10/20 02:06:18;;;;;;;;;;;;;;;;;;5036126;28;19905;-71
2022/10/20 02:08:44;;;;;;;;;;;;;;;;;;5038864;28;19947;-73
2022/10/20 02:11:09;;;;;;;;;;;;;;;;;;5040616;28;19909;-72
2022/10/20 02:13:35;;;;;;;;;;;;;;;;;;5042300;28;20287;-73
2022/10/20 02:16:01;;;;;;;;;;;;;;;;;;5041860;28;19914;-74
2022/10/20 02:18:27;;;;;;;;;;;;;;;;;;5048090;28;19909;-73
2022/10/20 02:20:53;;;;;;;;;;;;;;;;;;5034725;28;19912;-74
2022/10/20 02:23:19;;;;;;;;;;;;;;;;;;5034296;28;19905;-74
2022/10/20 02:25:45;;;;;;;;;;;;;;;;;;5034086;28;20358;-73
2022/10/20 02:28:10;;;;;;;;;;;;;;;;;;5034423;28;19913;-73
2022/10/20 02:30:36;;;;;;;;;;;;;;;;;;5034051;28;19909;-73
2022/10/20 02:33:02;;;;;;;;;;;;;;;;;;5016282;28;19924;-73
2022/10/20 02:35:28;;;;;;;;;;;;;;;;;;5034174;28;20560;-74
2022/10/20 02:37:54;;;;;;;;;;;;;;;;;;5034166;28;19916;-75
2022/10/20 02:40:21;;;;;;;;;;;;;;;;;;5034375;28;19912;-74
2022/10/20 02:42:47;;;;;;;;;;;;;;;;;;5034222;28;19912;-74
2022/10/20 02:45:12;;;;;;;;;;;;;;;;;;5034254;28;19971;-74
2022/10/20 02:47:38;;;;;;;;;;;;;;;;;;5033899;28;19935;-74
2022/10/20 02:50:04;;;;;;;;;;;;;;;;;;5033940;28;20354;-73
2022/10/20 02:52:30;;;;;;;;;;;;;;;;;;5015975;28;19920;-73
2022/10/20 02:54:56;;;;;;;;;;;;;;;;;;5033691;28;19916;-75
2022/10/20 02:57:22;;;;;;;;;;;;;;;;;;5032748;28;20414;-74
2022/10/20 02:59:48;;;;;;;;;;;;;;;;;;5017606;28;19905;-75
2022/10/20 03:02:13;;;;;;;;;;;;;;;;;;5036543;28;19920;-76
2022/10/20 03:04:39;;;;;;;;;;;;;;;;;;5036062;28;19908;-76
2022/10/20 03:07:05;;;;;;;;;;;;;;;;;;5035459;28;19905;-75
2022/10/20 03:09:31;;;;;;;;;;;;;;;;;;5035349;28;19992;-76
2022/10/20 03:11:57;;;;;;;;;;;;;;;;;;5034100;28;20074;-76
2022/10/20 03:14:23;;;;;;;;;;;;;;;;;;5033676;28;19967;-76
2022/10/20 03:16:49;;;;;;;;;;;;;;;;;;5033753;28;19999;-75
2022/10/20 03:19:15;;;;;;;;;;;;;;;;;;5015697;28;20255;-75
2022/10/20 03:21:40;;;;;;;;;;;;;;;;;;5036128;28;19951;-77
2022/10/20 03:24:06;;;;;;;;;;;;;;;;;;5034372;28;19905;-75
2022/10/20 03:26:32;;;;;;;;;;;;;;;;;;5032931;28;20282;-76
2022/10/20 03:28:58;;;;;;;;;;;;;;;;;;5032593;28;19998;-75
2022/10/20 03:31:24;;;;;;;;;;;;;;;;;;5033553;28;19920;-78
2022/10/20 03:33:50;;;;;;;;;;;;;;;;;;5033420;28;20043;-76
2022/10/20 03:36:15;;;;;;;;;;;;;;;;;;5033654;28;19901;-74
2022/10/20 03:38:44;;;;;;;;;;;;;;;;;;5033046;28;19963;-73
2022/10/20 03:41:10;;;;;;;;;;;;;;;;;;5032633;28;19908;-73
2022/10/20 03:43:36;;;;;;;;;;;;;;;;;;5033119;28;19905;-73
2022/10/20 03:46:02;;;;;;;;;;;;;;;;;;5038786;28;20353;-74
2022/10/20 03:48:28;;;;;;;;;;;;;;;;;;5035247;28;19905;-73
2022/10/20 03:50:54;;;;;;;;;;;;;;;;;;5035736;28;20003;-73
2022/10/20 03:53:20;;;;;;;;;;;;;;;;;;5035961;28;19905;-73
2022/10/20 03:55:45;;;;;;;;;;;;;;;;;;5033633;28;20374;-73
2022/10/20 03:58:11;;;;;;;;;;;;;;;;;;5033667;28;19912;-73
2022/10/20 04:00:37;;;;;;;;;;;;;;;;;;5033980;28;20000;-72
2022/10/20 04:03:03;;;;;;;;;;;;;;;;;;5032514;28;19917;-73
2022/10/20 04:05:29;;;;;;;;;;;;;;;;;;5032703;28;19913;-74
2022/10/20 04:07:55;;;;;;;;;;;;;;;;;;5033200;28;19912;-72
2022/10/20 04:10:20;;;;;;;;;;;;;;;;;;5034246;28;19974;-74
2022/10/20 04:12:46;;;;;;;;;;;;;;;;;;5033687;28;19984;-73
2022/10/20 04:15:12;;;;;;;;;;;;;;;;;;5035403;28;20003;-73
2022/10/20 04:17:38;;;;;;;;;;;;;;;;;;5032389;28;20048;-73
2022/10/20 04:20:04;;;;;;;;;;;;;;;;;;5032467;28;19948;-73
2022/10/20 04:22:30;;;;;;;;;;;;;;;;;;5036455;28;20270;-73
2022/10/20 04:24:56;;;;;;;;;;;;;;;;;;5034945;28;19905;-73
2022/10/20 04:27:22;;;;;;;;;;;;;;;;;;5040032;28;19919;-72
2022/10/20 04:29:48;;;;;;;;;;;;;;;;;;5028873;28;19913;-72
2022/10/20 04:32:14;;;;;;;;;;;;;;;;;;5054219;28;19905;-73
2022/10/20 04:34:39;;;;;;;;;;;;;;;;;;5055033;28;19905;-74
2022/10/20 04:37:05;;;;;;;;;;;;;;;;;;5053375;28;19955;-73
2022/10/20 04:39:31;;;;;;;;;;;;;;;;;;5034122;28;19909;-74
2022/10/20 04:41:58;;;;;;;;;;;;;;;;;;5037048;28;19955;-74
2022/10/20 04:44:24;;;;;;;;;;;;;;;;;;5031531;28;20358;-73
2022/10/20 04:46:50;;;;;;;;;;;;;;;;;;5031192;28;19996;-73
2022/10/20 04:49:16;;;;;;;;;;;;;;;;;;5031778;28;19905;-74
2022/10/20 04:51:42;;;;;;;;;;;;;;;;;;5013226;28;19971;-73
2022/10/20 04:54:07;;;;;;;;;;;;;;;;;;5031819;28;20362;-72
2022/10/20 04:56:33;;;;;;;;;;;;;;;;;;5031087;28;19905;-72
2022/10/20 04:58:59;;;;;;;;;;;;;;;;;;5032932;28;19916;-74
2022/10/20 05:01:25;;;;;;;;;;;;;;;;;;5031098;28;20293;-74
2022/10/20 05:03:51;;;;;;;;;;;;;;;;;;5031777;28;19917;-73
2022/10/20 05:06:17;;;;;;;;;;;;;;;;;;5031493;28;19905;-72
2022/10/20 05:08:43;;;;;;;;;;;;;;;;;;5013938;28;20370;-73
2022/10/20 05:11:09;;;;;;;;;;;;;;;;;;5031567;28;19909;-73
2022/10/20 05:13:34;;;;;;;;;;;;;;;;;;5031661;28;19905;-73
2022/10/20 05:16:00;;;;;;;;;;;;;;;;;;5031874;28;19901;-73
2022/10/20 05:18:26;;;;;;;;;;;;;;;;;;5032828;28;19905;-72
2022/10/20 05:20:52;;;;;;;;;;;;;;;;;;5031588;28;19963;-73
2022/10/20 05:23:18;;;;;;;;;;;;;;;;;;5033186;28;19905;-72
2022/10/20 05:25:44;;;;;;;;;;;;;;;;;;5014053;28;20362;-73
2022/10/20 05:28:10;;;;;;;;;;;;;;;;;;5013142;28;19906;-74
2022/10/20 05:30:36;;;;;;;;;;;;;;;;;;5033851;28;20366;-74
2022/10/20 05:33:02;;;;;;;;;;;;;;;;;;5015793;28;20005;-74
2022/10/20 05:35:28;;;;;;;;;;;;;;;;;;5032244;28;19944;-74
2022/10/20 05:37:53;;;;;;;;;;;;;;;;;;5031902;28;19905;-73
2022/10/20 05:40:19;;;;;;;;;;;;;;;;;;5034334;28;20314;-73
2022/10/20 05:42:45;;;;;;;;;;;;;;;;;;5001574;28;20477;-72
2022/10/20 05:45:11;;;;;;;;;;;;;;;;;;5034444;28;19912;-73
2022/10/20 05:47:37;;;;;;;;;;;;;;;;;;5034756;28;20259;-74
2022/10/20 05:50:03;;;;;;;;;;;;;;;;;;5034902;28;19920;-73
2022/10/20 05:52:29;;;;;;;;;;;;;;;;;;5035015;28;19905;-74
2022/10/20 05:54:55;;;;;;;;;;;;;;;;;;5034602;28;19909;-74
2022/10/20 05:57:20;;;;;;;;;;;;;;;;;;5034638;28;19911;-73
2022/10/20 05:59:46;;;;;;;;;;;;;;;;;;5035782;28;20606;-74
2022/10/20 06:02:12;;;;;;;;;;;;;;;;;;5034572;28;19913;-73
2022/10/20 06:04:38;;;;;;;;;;;;;;;;;;5017181;28;19905;-72
2022/10/20 06:07:08;;;;;;;;;;;;;;;;;;5045635;28;19905;-73
2022/10/20 06:09:34;;;;;;;;;;;;;;;;;;5035079;28;19976;-73
2022/10/20 06:12:00;;;;;;;;;;;;;;;;;;5016357;28;20185;-72
2022/10/20 06:14:26;;;;;;;;;;;;;;;;;;5034016;28;19912;-72
2022/10/20 06:16:52;;;;;;;;;;;;;;;;;;5033652;28;19944;-74
2022/10/20 06:19:18;;;;;;;;;;;;;;;;;;5034112;28;19905;-73
2022/10/20 06:21:44;;;;;;;;;;;;;;;;;;5017152;28;19905;-73
2022/10/20 06:24:10;;;;;;;;;;;;;;;;;;5033904;28;19905;-78
2022/10/20 06:26:35;;;;;;;;;;;;;;;;;;5035562;28;19968;-76
2022/10/20 06:29:01;;;;;;;;;;;;;;;;;;5034777;28;20329;-74
2022/10/20 06:31:27;;;;;;;;;;;;;;;;;;5039465;28;19985;-76
2022/10/20 06:33:53;;;;;;;;;;;;;;;;;;5036359;28;19909;-77
2022/10/20 06:36:19;;;;;;;;;;;;;;;;;;5034604;28;20282;-78
2022/10/20 06:38:45;;;;;;;;;;;;;;;;;;5036397;28;19959;-77
2022/10/20 06:41:11;;;;;;;;;;;;;;;;;;5017785;28;20348;-77
2022/10/20 06:43:37;;;;;;;;;;;;;;;;;;5045550;28;19905;-76
2022/10/20 06:46:02;;;;;;;;;;;;;;;;;;5049925;28;19916;-76
2022/10/20 06:48:28;;;;;;;;;;;;;;;;;;5053609;28;19905;-76
2022/10/20 06:50:54;;;;;;;;;;;;;;;;;;5048736;28;20063;-75
2022/10/20 06:53:20;;;;;;;;;;;;;;;;;;5028404;28;19909;-75
2022/10/20 06:55:46;;;;;;;;;;;;;;;;;;5043530;28;20000;-78
2022/10/20 06:58:12;;;;;;;;;;;;;;;;;;5043946;28;20261;-75
2022/10/20 07:00:38;;;;;;;;;;;;;;;;;;5026583;28;19905;-73
2022/10/20 07:03:04;;;;;;;;;;;;;;;;;;5065497;22;20413;-75
2022/10/20 07:05:30;;;;;;;;;;;;;;;;;;5038059;28;19905;-77
2022/10/20 07:07:55;;;;;;;;;;;;;;;;;;5037943;28;19912;-76
2022/10/20 07:10:21;;;;;;;;;;;;;;;;;;5019683;28;19920;-76
2022/10/20 07:12:47;;;;;;;;;;;;;;;;;;5020030;28;19909;-75
2022/10/20 07:15:13;;;;;;;;;;;;;;;;;;5037136;28;19909;-76
2022/10/20 07:17:39;;;;;;;;;;;;;;;;;;5036810;28;20063;-77
2022/10/20 07:20:05;;;;;;;;;;;;;;;;;;5018210;28;19912;-76
2022/10/20 07:22:32;;;;;;;;;;;;;;;;;;5036643;28;19972;-76
2022/10/20 07:25:00;;;;;;;;;;;;;;;;;;5039276;28;19916;-80
2022/10/20 07:27:26;;;;;;;;;;;;;;;;;;5040873;28;20021;-74
2022/10/20 07:29:52;;;;;;;;;;;;;;;;;;5036288;28;20357;-77
2022/10/20 07:32:18;;;;;;;;;;;;;;;;;;5035682;28;19905;-77
2022/10/20 07:34:44;;;;;;;;;;;;;;;;;;5018198;28;19931;-77
2022/10/20 07:37:10;;;;;;;;;;;;;;;;;;5040981;28;19912;-76
2022/10/20 07:39:36;;;;;;;;;;;;;;;;;;5018915;28;20015;-79
2022/10/20 07:42:01;;;;;;;;;;;;;;;;;;5035868;28;19924;-75
2022/10/20 07:44:27;;;;;;;;;;;;;;;;;;5037480;28;20360;-76
2022/10/20 07:46:53;;;;;;;;;;;;;;;;;;5036775;28;19912;-78
2022/10/20 07:49:19;;;;;;;;;;;;;;;;;;5017683;28;19952;-75
2022/10/20 07:51:45;;;;;;;;;;;;;;;;;;5034786;28;19975;-77
2022/10/20 07:54:11;;;;;;;;;;;;;;;;;;5018011;28;19995;-76
2022/10/20 07:56:37;;;;;;;;;;;;;;;;;;5018883;28;20316;-77
2022/10/20 07:59:03;;;;;;;;;;;;;;;;;;5022338;28;19917;-75
2022/10/20 08:01:28;;;;;;;;;;;;;;;;;;5038544;28;19905;-76
2022/10/20 08:03:54;;;;;;;;;;;;;;;;;;5036257;28;19948;-76
2022/10/20 08:06:20;;;;;;;;;;;;;;;;;;5034096;28;20298;-76
2022/10/20 08:08:46;;;;;;;;;;;;;;;;;;5033381;28;20391;-77
2022/10/20 08:11:12;;;;;;;;;;;;;;;;;;5034424;28;19916;-76
2022/10/20 08:13:39;;;;;;;;;;;;;;;;;;5034353;28;19989;-76
2022/10/20 08:16:05;;;;;;;;;;;;;;;;;;5034846;28;19975;-77
2022/10/20 08:18:31;;;;;;;;;;;;;;;;;;5033565;28;20301;-76
2022/10/20 08:20:57;;;;;;;;;;;;;;;;;;5035089;28;19959;-75
2022/10/20 08:23:23;;;;;;;;;;;;;;;;;;5034458;28;19952;-76
2022/10/20 08:25:49;;;;;;;;;;;;;;;;;;5036678;28;19909;-75
2022/10/20 08:28:14;;;;;;;;;;;;;;;;;;5038529;28;19948;-76
2022/10/20 08:30:40;;;;;;;;;;;;;;;;;;5039796;28;19909;-76
2022/10/20 08:33:06;;;;;;;;;;;;;;;;;;5040972;28;19909;-76
2022/10/20 08:35:32;;;;;;;;;;;;;;;;;;5040767;28;20044;-75
2022/10/20 08:37:58;;;;;;;;;;;;;;;;;;5038341;28;20007;-75
2022/10/20 08:40:24;;;;;;;;;;;;;;;;;;5038863;28;19936;-76
2022/10/20 08:42:50;;;;;;;;;;;;;;;;;;5035626;28;19905;-75
2022/10/20 08:45:15;;;;;;;;;;;;;;;;;;5034856;28;19933;-76
2022/10/20 08:47:41;;;;;;;;;;;;;;;;;;5035209;28;19909;-75
2022/10/20 08:50:09;;;;;;;;;;;;;;;;;;5033313;28;19943;-75
2022/10/20 08:52:35;;;;;;;;;;;;;;;;;;5033752;28;19905;-74
2022/10/20 08:55:01;;;;;;;;;;;;;;;;;;5038300;28;19908;-78
2022/10/20 08:57:27;;;;;;;;;;;;;;;;;;5032819;28;20306;-76
2022/10/20 08:59:53;;;;;;;;;;;;;;;;;;5033701;28;19945;-76
2022/10/20 09:02:18;;;;;;;;;;;;;;;;;;5033307;28;20308;-78
2022/10/20 09:04:45;;;;;;;;;;;;;;;;;;5033369;28;20016;-77
2022/10/20 09:07:11;;;;;;;;;;;;;;;;;;5032542;28;20255;-76
2022/10/20 09:09:36;;;;;;;;;;;;;;;;;;5033087;28;19992;-77
2022/10/20 09:12:02;;;;;;;;;;;;;;;;;;5031606;28;19928;-78
2022/10/20 09:14:28;;;;;;;;;;;;;;;;;;5036812;28;19941;-75
2022/10/20 09:16:54;;;;;;;;;;;;;;;;;;5037991;28;20383;-76
2022/10/20 09:19:20;;;;;;;;;;;;;;;;;;5038461;28;19931;-77
2022/10/20 09:21:46;;;;;;;;;;;;;;;;;;5039942;28;19955;-76
2022/10/20 09:24:12;;;;;;;;;;;;;;;;;;5039858;28;19912;-77
2022/10/20 09:26:37;;;;;;;;;;;;;;;;;;5039791;28;19905;-77
2022/10/20 09:29:03;;;;;;;;;;;;;;;;;;5043645;28;20381;-78
2022/10/20 09:31:29;;;;;;;;;;;;;;;;;;5039109;28;20001;-77
2022/10/20 09:33:55;;;;;;;;;;;;;;;;;;5037537;28;19967;-77
2022/10/20 09:36:21;;;;;;;;;;;;;;;;;;5036374;28;19905;-76
2022/10/20 09:38:47;;;;;;;;;;;;;;;;;;5036679;28;20274;-76
2022/10/20 09:41:13;;;;;;;;;;;;;;;;;;5036149;28;19905;-76
2022/10/20 09:43:39;;;;;;;;;;;;;;;;;;5037009;28;19905;-77
2022/10/20 09:46:05;;;;;;;;;;;;;;;;;;5038046;28;20035;-77
2022/10/20 09:48:30;;;;;;;;;;;;;;;;;;5038582;28;19972;-78
2022/10/20 09:50:57;;;;;;;;;;;;;;;;;;5038833;28;19912;-76
2022/10/20 09:53:23;;;;;;;;;;;;;;;;;;5037625;28;19905;-74
2022/10/20 09:55:49;;;;;;;;;;;;;;;;;;5035953;28;19976;-76
2022/10/20 09:58:15;;;;;;;;;;;;;;;;;;5037602;28;19951;-76
2022/10/20 10:00:40;;;;;;;;;;;;;;;;;;5035585;28;19993;-77
2022/10/20 10:03:06;;;;;;;;;;;;;;;;;;5036787;28;19917;-75
2022/10/20 10:05:32;;;;;;;;;;;;;;;;;;5036628;28;19917;-77
2022/10/20 10:07:58;;;;;;;;;;;;;;;;;;5036330;28;19905;-76
2022/10/20 10:10:24;;;;;;;;;;;;;;;;;;5036028;28;19909;-74
2022/10/20 10:12:50;;;;;;;;;;;;;;;;;;5037562;28;20289;-77
2022/10/20 10:15:16;;;;;;;;;;;;;;;;;;5040052;28;19904;-74
2022/10/20 10:17:41;;;;;;;;;;;;;;;;;;5039405;28;19906;-76
2022/10/20 10:20:07;;;;;;;;;;;;;;;;;;5039668;28;20330;-76
2022/10/20 10:22:33;;;;;;;;;;;;;;;;;;5040948;28;19905;-76
2022/10/20 10:24:59;;;;;;;;;;;;;;;;;;5040560;28;19905;-77
2022/10/20 10:27:25;;;;;;;;;;;;;;;;;;5041423;28;19912;-77
2022/10/20 10:29:51;;;;;;;;;;;;;;;;;;5041338;28;19936;-77
2022/10/20 10:32:17;;;;;;;;;;;;;;;;;;5041602;28;20016;-77
2022/10/20 10:34:43;;;;;;;;;;;;;;;;;;5042410;28;19905;-76
2022/10/20 10:37:08;;;;;;;;;;;;;;;;;;5041781;28;19901;-76
2022/10/20 10:39:34;;;;;;;;;;;;;;;;;;5040796;28;19991;-77
2022/10/20 10:42:00;;;;;;;;;;;;;;;;;;5041685;28;19901;-76
2022/10/20 10:44:26;;;;;;;;;;;;;;;;;;5042562;28;20101;-78
2022/10/20 10:46:52;;;;;;;;;;;;;;;;;;5043076;28;20066;-76
2022/10/20 10:49:18;;;;;;;;;;;;;;;;;;5041868;28;19912;-76
2022/10/20 10:51:44;;;;;;;;;;;;;;;;;;5042870;28;19952;-78
2022/10/20 10:54:09;;;;;;;;;;;;;;;;;;5044387;28;20018;-77
2022/10/20 10:56:35;;;;;;;;;;;;;;;;;;5045061;28;19932;-75
2022/10/20 10:59:01;;;;;;;;;;;;;;;;;;5052516;28;19897;-77
2022/10/20 11:01:27;;;;;;;;;;;;;;;;;;5055705;28;19920;-77
2022/10/20 11:03:53;;;;;;;;;;;;;;;;;;5055024;28;19923;-76
2022/10/20 11:06:19;;;;;;;;;;;;;;;;;;5051143;28;20319;-76
2022/10/20 11:08:45;;;;;;;;;;;;;;;;;;5042610;28;19905;-77
2022/10/20 11:11:10;;;;;;;;;;;;;;;;;;5037094;28;20279;-78
2022/10/20 11:13:36;;;;;;;;;;;;;;;;;;5038541;28;19913;-77
2022/10/20 11:16:02;;;;;;;;;;;;;;;;;;5042933;28;19905;-77
2022/10/20 11:18:28;;;;;;;;;;;;;;;;;;5047325;28;19928;-77
2022/10/20 11:20:54;;;;;;;;;;;;;;;;;;5045465;28;19905;-78
2022/10/20 11:23:20;;;;;;;;;;;;;;;;;;5042020;28;19905;-76
2022/10/20 11:25:46;;;;;;;;;;;;;;;;;;5045850;28;19912;-74
2022/10/20 11:28:12;;;;;;;;;;;;;;;;;;5040843;28;19951;-75
2022/10/20 11:30:37;;;;;;;;;;;;;;;;;;5037243;28;19999;-77
2022/10/20 11:33:03;;;;;;;;;;;;;;;;;;5037188;28;19905;-76
2022/10/20 11:35:29;;;;;;;;;;;;;;;;;;5035934;28;19909;-76
2022/10/20 11:37:55;;;;;;;;;;;;;;;;;;5034787;28;19948;-77
2022/10/20 11:40:21;;;;;;;;;;;;;;;;;;5037996;28;19905;-74
2022/10/20 11:42:48;;;;;;;;;;;;;;;;;;5035484;28;19909;-76
2022/10/20 11:45:14;;;;;;;;;;;;;;;;;;5035462;28;19941;-75
2022/10/20 11:47:40;;;;;;;;;;;;;;;;;;5033912;28;19905;-76
2022/10/20 11:50:06;;;;;;;;;;;;;;;;;;5035280;28;19915;-77
2022/10/20 11:52:32;;;;;;;;;;;;;;;;;;5034521;28;19909;-77
2022/10/20 11:54:58;;;;;;;;;;;;;;;;;;5034120;28;19977;-77
2022/10/20 11:57:24;;;;;;;;;;;;;;;;;;5032825;28;19951;-76
2022/10/20 11:59:50;;;;;;;;;;;;;;;;;;5035779;28;19909;-77
2022/10/20 12:02:15;;;;;;;;;;;;;;;;;;5035617;28;19909;-76
2022/10/20 12:04:41;;;;;;;;;;;;;;;;;;5034241;28;19912;-78
2022/10/20 12:07:07;;;;;;;;;;;;;;;;;;5037912;28;20027;-77
2022/10/20 12:09:33;;;;;;;;;;;;;;;;;;5038980;28;19905;-78
2022/10/20 12:11:59;;;;;;;;;;;;;;;;;;5038076;28;19909;-77
2022/10/20 12:14:25;;;;;;;;;;;;;;;;;;5038555;28;20362;-76
2022/10/20 12:16:51;;;;;;;;;;;;;;;;;;5034485;28;20318;-77
2022/10/20 12:19:17;;;;;;;;;;;;;;;;;;5036195;28;20393;-77
2022/10/20 12:21:43;;;;;;;;;;;;;;;;;;5037861;28;19905;-78
2022/10/20 12:24:14;;;;;;;;;;;;;;;;;;5036448;28;19905;-77
2022/10/20 12:26:40;;;;;;;;;;;;;;;;;;5036912;28;20105;-76
2022/10/20 12:29:06;;;;;;;;;;;;;;;;;;5031133;28;19909;-77
2022/10/20 12:31:32;;;;;;;;;;;;;;;;;;5034691;28;19917;-75
2022/10/20 12:33:58;;;;;;;;;;;;;;;;;;5035922;28;19906;-77
2022/10/20 12:36:23;;;;;;;;;;;;;;;;;;5034380;28;20277;-77
2022/10/20 12:38:49;;;;;;;;;;;;;;;;;;5035331;28;20316;-78
2022/10/20 12:41:15;;;;;;;;;;;;;;;;;;5034166;28;19905;-77
2022/10/20 12:43:41;;;;;;;;;;;;;;;;;;5034936;28;19930;-76
2022/10/20 12:46:07;;;;;;;;;;;;;;;;;;5035869;28;19909;-78
2022/10/20 12:48:33;;;;;;;;;;;;;;;;;;5039899;28;20066;-79
2022/10/20 12:50:59;;;;;;;;;;;;;;;;;;5041228;28;19909;-77
2022/10/20 12:53:27;;;;;;;;;;;;;;;;;;5037803;28;20231;-77
2022/10/20 12:56:39;;;;;;;5.10;2.75;;;;;;;;;;5143862;27;20177;-77
2022/10/20 12:59:22;;;;;;;8.30;3.28;;;;;;;;;;5111403;28;20031;-78
2022/10/20 13:02:06;;;;;;;6.95;3.00;;;;;;;;;;5111228;28;20020;-76
2022/10/20 13:04:53;;;;;;;10.57;3.90;;;;;;;;;;5114736;28;20034;-76
2022/10/20 13:07:38;;;;;;;9.30;3.08;;;;;;;;;;5113121;28;20024;-75
2022/10/20 13:10:24;;;;;;;5.95;3.60;;;;;;;;;;5111228;28;20107;-76
2022/10/20 13:12:50;;;;;;;15.18;3.30;;;;;;;;;;5114614;28;20024;-76
2022/10/20 13:15:18;;;;;;;11.13;3.47;;;;;;;;;;5117537;28;20089;-77
2022/10/20 13:17:50;;;;;;;8.75;3.10;;;;;;;;;;5111385;28;20047;-73
2022/10/20 13:20:24;;;;;;;11.38;3.30;;;;;;;;;;5112529;28;20121;-76
2022/10/20 13:22:51;;;;;;;9.18;2.88;;;;;;;;;;5109076;28;20469;-73
2022/10/20 13:25:25;;;;;;;6.50;3.28;;;;;;;;;;5110211;28;20016;-75
2022/10/20 13:28:01;;;;;;;14.07;4.18;;;;;;;;;;5109709;28;20464;-74
2022/10/20 13:30:28;;;;;;;9.80;3.17;;;;;;;;;;5109705;28;20031;-73
2022/10/20 13:33:02;;;;;;;10.48;2.67;;;;;;;;;;5108258;28;20030;-72
2022/10/20 13:35:32;;;;;;;10.48;3.17;;;;;;;;;;5110610;28;20051;-75
2022/10/20 13:38:00;;;;;;;9.25;3.10;;;;;;;;;;5109680;28;20103;-73
2022/10/20 13:40:31;;;;;;;9.80;3.00;;;;;;;;;;5108873;28;20012;-72
2022/10/20 13:43:10;;;;;;;6.25;2.65;;;;;;;;;;5112184;28;20031;-77
2022/10/20 13:45:36;;;;;;;10.55;3.05;;;;;;;;;;5112365;28;20024;-73
2022/10/20 13:48:04;;;;;;;10.50;3.15;;;;;;;;;;5109713;28;20040;-71
2022/10/20 13:50:33;;;;;;;9.43;3.15;;;;;;;;;;5109320;28;20047;-75
2022/10/20 13:53:02;;;;;;;6.57;2.85;;;;;;;;;;5109062;28;20028;-72
2022/10/20 13:55:30;;;;;;;7.82;2.72;;;;;;;;;;5108807;28;20039;-78
2022/10/20 13:57:58;;;;;;;7.07;2.65;;;;;;;;;;5110021;28;20023;-72
2022/10/20 14:00:26;;;;;;;6.22;2.70;;;;;;;;;;5111216;28;20020;-73
2022/10/20 14:03:02;;;;;;;10.38;2.42;;;;;;;;;;5108631;28;20097;-75
2022/10/20 14:05:30;;;;;;;7.10;2.97;;;;;;;;;;5108502;28;20111;-72
2022/10/20 14:07:59;;;;;;;10.73;2.90;;;;;;;;;;5095497;28;20031;-72
2022/10/20 14:10:39;;;;;;;9.43;2.80;;;;;;;;;;5090650;28;20048;-72
2022/10/20 14:13:07;;;;;;;8.45;3.17;;;;;;;;;;5097521;28;20028;-74
2022/10/20 14:15:34;;;;;;;8.93;3.15;;;;;;;;;;5090768;28;20017;-74
2022/10/20 14:18:02;;;;;;;8.43;2.80;;;;;;;;;;5098518;28;20107;-74
2022/10/20 14:20:28;;;;;;;6.25;2.70;;;;;;;;;;5097014;28;20028;-74
2022/10/20 14:22:55;;;;;;;11.50;2.80;;;;;;;;;;5096042;28;20036;-71
2022/10/20 14:25:21;;;;;;;17.35;9.10;;;;;;;;;;5115010;28;20055;-74
2022/10/20 14:27:50;;;;;;;10.07;2.92;;;;;;;;;;5115304;28;20050;-73
2022/10/20 14:30:16;;;;;;;7.30;3.08;;;;;;;;;;5115068;28;20023;-78
2022/10/20 14:32:43;;;;;;;7.25;3.38;;;;;;;;;;5114223;28;20034;-75
2022/10/20 14:35:25;;;;;;;7.07;2.67;;;;;;;;;;5114982;28;20124;-75
2022/10/20 14:38:13;;;;;;;12.25;2.65;;;;;;;;;;5114643;28;20039;-74
2022/10/20 14:40:39;;;;;;;10.10;3.10;;;;;;;;;;5114348;28;20028;-73
2022/10/20 14:43:14;;;;;;;9.02;3.30;;;;;;;;;;5114867;28;20024;-74
2022/10/20 14:45:40;;;;;;;6.93;3.05;;;;;;;;;;5114283;28;20030;-74
2022/10/20 14:48:06;;;;;;;12.70;3.03;;;;;;;;;;5114251;28;20101;-76
2022/10/20 14:50:36;;;;;;;10.55;3.00;;;;;;;;;;5113293;28;20024;-76
2022/10/20 14:53:20;;;;;;;10.45;3.03;;;;;;;;;;5113975;28;20019;-74
2022/10/20 14:55:46;;;;;;;7.57;3.22;;;;;;;;;;5112499;28;20034;-73
2022/10/20 14:58:45;;;;;;;14.10;3.50;;;;;;;;;;5113272;28;20496;-74
2022/10/20 15:01:26;;;;;;;7.32;4.03;;;;;;;;;;5111410;27;20134;-76
2022/10/20 15:04:22;;;;;;;7.85;3.95;;;;;;;;;;5114051;28;20024;-73
2022/10/20 15:06:48;;;;;;;10.57;4.15;;;;;;;;;;5111592;27;20119;-75
2022/10/20 15:09:17;;;;;;;12.48;4.45;;;;;;;;;;5114007;28;20690;-75
2022/10/20 15:11:43;;;;;;;12.73;6.80;;;;;;;;;;5113977;28;20027;-74
2022/10/20 15:14:14;;;;;;;13.25;4.55;;;;;;;;;;5115159;28;20049;-72
2022/10/20 15:16:44;;;;;;;10.88;4.85;;;;;;;;;;5115108;27;20503;-75
2022/10/20 15:19:30;;;;;;;7.68;4.75;;;;;;;;;;5114913;28;20816;-75
2022/10/20 15:22:12;;;;;;;11.10;4.80;;;;;;;;;;5116743;28;20085;-73
2022/10/20 15:24:39;;;;;;;15.00;5.25;;;;;;;;;;5112589;28;20536;-74
2022/10/20 15:27:05;;;;;;;8.23;4.72;;;;;;;;;;5095712;28;20114;-73
2022/10/20 15:29:31;;;;;;;8.77;4.40;;;;;;;;;;5093753;28;20067;-75
2022/10/20 15:31:58;;;;;;;12.43;4.15;;;;;;;;;;5093554;28;20032;-73
2022/10/20 15:34:25;;;;;;;14.77;5.15;;;;;;;;;;5093407;28;20031;-76
2022/10/20 15:36:51;;;;;;;15.75;4.63;;;;;;;;;;5093794;28;20099;-73
2022/10/20 15:39:17;;;;;;;9.63;4.60;;;;;;;;;;5093000;28;20016;-74
2022/10/20 15:41:43;;;;;;;16.17;5.70;;;;;;;;;;5095804;28;20027;-75
2022/10/20 15:44:13;;;;;;;14.70;4.47;;;;;;;;;;5097652;28;20024;-74
2022/10/20 15:46:40;;;;;;;15.73;5.05;;;;;;;;;;5099585;28;20027;-72
2022/10/20 15:49:06;;;;;;;25.42;9.18;;;;;;;;;;5097056;28;20024;-76
2022/10/20 15:51:34;;;;;;;8.57;4.78;;;;;;;;;;5098565;28;20016;-75
2022/10/20 15:54:00;;;;;;;16.50;5.57;;;;;;;;;;5093888;28;20021;-73
2022/10/20 15:56:26;;;;;;;13.73;4.97;;;;;;;;;;5091933;28;20020;-75
2022/10/20 15:58:52;;;;;;;13.00;5.40;;;;;;;;;;5092491;28;20655;-73
2022/10/20 16:01:19;;;;;;;20.17;9.23;;;;;;;;;;5091830;28;20051;-74
2022/10/20 16:03:46;;;;;;;10.20;4.97;;;;;;;;;;5093212;28;20069;-75
2022/10/20 16:06:12;;;;;;;8.55;4.63;;;;;;;;;;5100489;28;20024;-74